Huvudsida
METAR-TAF:

METAR-TAF

Flygplatser :

Stokmarknes flygplats. Skagen

Stokmarknes, Norge

latitud: 68-35N, longitud: 015-01E, höjd: 0 m

Aktuellt väderrapport

Denna rapport gjordes för 20 minuter sedan, klockan 21:50 UTC
Stilla vind
Temperatur 10°C
Fuktighet 93%
Tryck 999 hPa
Sikt: 8000 m
lätt regn,

METAR: ENSK 202150Z AUTO 00000KT 8000 -RA FEW012/// BKN017/// BKN026/// 10/09 Q0999

Tid: 00:10 (22:10 UTC)

Väderprognos

Denna rapport gjordes för 11 timmar och 10 minuter sedan, klockan 11:00 UTC
Prognos gäller från 20 kl. 12 UTC till 20 kl. 20 UTC
Vind 15 kt från syd
Sikt 10 km eller mer
Få moln på en höjd av 1500 ft
Brutna moln på en höjd av 3000 ft
lätt regn
Temporärt
från 20 kl. 12 UTC till 20 kl. 20 UTC
Brutna moln på en höjd av 1400 ft
Spridda moln på en höjd av 1500 ft, Högtornande cumulus.
regnskurar,

TAF: ENSK 201100Z 2012/2020 19015KT 9999 -RA FEW015 BKN030 TEMPO 2012/2020 SHRA BKN014 SCT015TCU

Aktuella väderrapporter och prognoser från 4000 flygplatser (METAR- och TAF-rapporter).

De tillgängliga stationerna syns som gula och röda prickar på kartan.

För musen över prickarna för att se namnen på stationerna.

Klicka sedan för att få väderrapporter och prognoser.

För att ändra kartan: Klicka på de gröna knapparna med ett svart kors på för att zooma in; den gröna knappen med ett streck på för att zooma ut; eller på de gröna pilarna för angränsande kartor.


METAR-TAF: